Time;durP1;ratioP1;P1;durP2;ratioP2;P2;SDS_P1;SDS_P2;PMS_P1;PMS_P2;Temp;Humidity;BMP_temperature;BMP_pressure;BME280_temperature;BME280_humidity;BME280_pressure;Samples;Min_cycle;Max_cycle;Signal;HPM_P1;HPM_P2
2022/12/26 00:01:30;;;;;;;8.15;4.40;;;9.50;99.90;;;;;;5071041;28;20036;-36
2022/12/26 00:03:56;;;;;;;7.10;4.40;;;9.50;99.90;;;;;;5071121;28;20465;-35
2022/12/26 00:06:25;;;;;;;6.65;4.35;;;9.40;99.90;;;;;;5070733;28;20112;-36
2022/12/26 00:08:51;;;;;;;6.38;4.57;;;9.50;99.90;;;;;;5071139;28;20620;-35
2022/12/26 00:11:17;;;;;;;5.80;4.15;;;9.50;99.90;;;;;;5071488;28;20021;-37
2022/12/26 00:13:43;;;;;;;6.47;4.28;;;9.40;99.90;;;;;;5071052;28;20103;-36
2022/12/26 00:16:13;;;;;;;5.55;4.25;;;9.40;99.90;;;;;;5071191;28;20482;-35
2022/12/26 00:18:38;;;;;;;6.50;3.92;;;9.40;99.90;;;;;;5071002;28;20029;-37
2022/12/26 00:21:06;;;;;;;6.30;4.28;;;9.40;99.90;;;;;;5074801;28;20020;-35
2022/12/26 00:23:33;;;;;;;6.38;4.40;;;9.40;99.90;;;;;;5075743;28;20023;-36
2022/12/26 00:26:06;;;;;;;6.05;4.30;;;9.40;99.90;;;;;;5074931;28;20024;-35
2022/12/26 00:28:32;;;;;;;14.25;4.60;;;9.40;99.90;;;;;;5074847;28;20028;-37
2022/12/26 00:31:01;;;;;;;6.97;4.65;;;9.40;99.90;;;;;;5074789;28;20081;-37
2022/12/26 00:33:27;;;;;;;5.20;4.10;;;9.40;99.90;;;;;;5074740;28;20086;-37
2022/12/26 00:35:52;;;;;;;6.57;4.50;;;9.40;99.90;;;;;;5074487;28;20478;-36
2022/12/26 00:38:18;;;;;;;7.30;4.28;;;9.40;99.90;;;;;;5074534;28;20112;-36
2022/12/26 00:40:44;;;;;;;6.53;4.35;;;9.40;99.90;;;;;;5074622;28;20021;-37
2022/12/26 00:43:09;;;;;;;6.22;4.28;;;9.40;99.90;;;;;;5074804;28;20035;-36
2022/12/26 00:45:35;;;;;;;8.98;4.13;;;9.40;99.90;;;;;;5074621;28;20028;-36
2022/12/26 00:48:01;;;;;;;5.82;4.43;;;9.40;99.90;;;;;;5074291;28;20017;-36
2022/12/26 00:50:27;;;;;;;7.97;4.40;;;9.40;99.90;;;;;;5074482;28;20024;-35
2022/12/26 00:52:55;;;;;;;6.65;4.53;;;9.30;99.90;;;;;;5074606;28;20035;-35
2022/12/26 00:55:21;;;;;;;5.93;4.70;;;9.40;99.90;;;;;;5074194;28;20406;-36
2022/12/26 00:57:46;;;;;;;8.20;4.95;;;9.40;99.90;;;;;;5073888;28;20040;-36
2022/12/26 01:00:13;;;;;;;5.80;4.25;;;9.30;99.90;;;;;;5074245;28;20032;-36
2022/12/26 01:02:38;;;;;;;9.20;4.43;;;9.40;99.90;;;;;;5074969;28;20036;-36
2022/12/26 01:05:06;;;;;;;8.82;4.30;;;9.30;99.90;;;;;;5074173;28;20400;-36
2022/12/26 01:07:36;;;;;;;8.27;4.30;;;9.30;99.90;;;;;;5074177;28;20352;-37
2022/12/26 01:10:04;;;;;;;6.55;4.82;;;9.30;99.90;;;;;;5073981;28;20070;-37
2022/12/26 01:12:30;;;;;;;5.93;4.43;;;9.30;99.90;;;;;;5074253;28;20020;-35
2022/12/26 01:14:57;;;;;;;5.78;4.55;;;9.30;99.90;;;;;;5074050;28;20017;-37
2022/12/26 01:17:23;;;;;;;6.18;4.30;;;9.30;99.90;;;;;;5073667;28;20028;-35
2022/12/26 01:19:48;;;;;;;6.50;4.43;;;9.30;99.90;;;;;;5073948;28;20025;-35
2022/12/26 01:22:14;;;;;;;5.25;4.68;;;9.30;99.90;;;;;;5074698;28;20074;-37
2022/12/26 01:24:40;;;;;;;5.45;4.30;;;9.30;99.90;;;;;;5074579;28;20429;-36
2022/12/26 01:27:05;;;;;;;6.28;4.40;;;9.30;99.90;;;;;;5073709;28;20390;-36
2022/12/26 01:29:31;;;;;;;8.20;5.07;;;9.30;99.90;;;;;;5073815;28;20029;-36
2022/12/26 01:31:57;;;;;;;8.95;4.97;;;9.30;99.90;;;;;;5073700;28;20055;-37
2022/12/26 01:34:22;;;;;;;5.65;4.53;;;9.30;99.90;;;;;;5073683;28;20422;-35
2022/12/26 01:36:48;;;;;;;6.65;4.57;;;9.30;99.90;;;;;;5073295;28;20024;-35
2022/12/26 01:39:14;;;;;;;6.28;4.63;;;9.30;99.90;;;;;;5072340;28;20111;-36
2022/12/26 01:41:40;;;;;;;5.85;4.75;;;9.30;99.90;;;;;;5073499;28;20510;-36
2022/12/26 01:44:44;;;;;;;8.18;4.65;;;9.30;99.90;;;;;;5072769;28;20040;-36
2022/12/26 01:47:11;;;;;;;6.85;4.43;;;9.30;99.90;;;;;;5072875;28;20505;-37
2022/12/26 01:49:42;;;;;;;8.15;4.60;;;9.30;99.90;;;;;;5073308;28;20033;-35
2022/12/26 01:52:14;;;;;;;5.75;4.40;;;9.30;99.90;;;;;;5073452;28;20462;-36
2022/12/26 01:54:46;;;;;;;5.15;4.18;;;9.30;99.90;;;;;;5073339;28;20047;-37
2022/12/26 01:57:18;;;;;;;6.18;4.43;;;9.30;99.90;;;;;;5073011;28;20056;-36
2022/12/26 01:59:45;;;;;;;7.55;4.13;;;9.30;99.90;;;;;;5073259;28;20013;-35
2022/12/26 02:02:10;;;;;;;5.50;4.10;;;9.30;99.90;;;;;;5073054;28;20063;-36
2022/12/26 02:07:26;;;;;;;5.15;4.30;;;9.20;99.90;;;;;;5073012;28;20032;-35
2022/12/26 02:09:52;;;;;;;7.63;4.75;;;9.20;99.90;;;;;;5073637;28;20028;-36
2022/12/26 02:12:33;;;;;;;7.88;4.03;;;9.20;99.90;;;;;;5073009;28;20470;-35
2022/12/26 02:15:01;;;;;;;6.10;4.15;;;9.20;99.90;;;;;;5072923;28;20469;-36
2022/12/26 02:17:27;;;;;;;5.85;4.20;;;9.20;99.90;;;;;;5072541;28;20017;-37
2022/12/26 02:20:00;;;;;;;5.47;4.13;;;9.20;99.90;;;;;;5072508;28;20475;-36
2022/12/26 02:22:41;;;;;;;5.88;4.28;;;9.30;99.90;;;;;;5072797;28;20057;-35
2022/12/26 02:25:56;;;;;;;6.63;4.07;;;9.20;99.90;;;;;;5072545;28;20025;-37
2022/12/26 02:28:47;;;;;;;5.13;4.15;;;9.30;99.90;;;;;;5072587;28;20027;-36
2022/12/26 02:31:31;;;;;;;6.43;4.30;;;9.20;99.90;;;;;;5073057;28;20110;-35
2022/12/26 02:34:27;;;;;;;7.50;3.70;;;9.20;99.90;;;;;;5072954;28;20028;-36
2022/12/26 02:37:38;;;;;;;4.90;4.05;;;9.20;99.90;;;;;;5061249;28;20036;-36
2022/12/26 02:40:25;;;;;;;5.45;4.22;;;9.20;99.90;;;;;;5072257;28;20028;-37
2022/12/26 02:43:14;;;;;;;6.03;4.10;;;9.30;99.90;;;;;;5071550;28;20024;-36
2022/12/26 02:48:57;;;;;;;5.60;4.22;;;9.20;99.90;;;;;;5072469;28;20116;-37
2022/12/26 03:14:58;;;;;;;7.30;4.23;;;9.20;99.90;;;;;;5073502;28;20027;-36
2022/12/26 03:17:37;;;;;;;8.10;4.18;;;9.20;99.90;;;;;;5071612;28;20036;-37
2022/12/26 03:20:10;;;;;;;5.55;3.83;;;9.20;99.90;;;;;;5071465;28;20028;-36
2022/12/26 03:22:45;;;;;;;5.00;3.80;;;9.20;99.90;;;;;;5072554;28;20038;-36
2022/12/26 03:28:19;;;;;;;5.47;3.90;;;9.20;99.90;;;;;;5071385;28;20031;-37
2022/12/26 03:30:47;;;;;;;4.60;3.45;;;9.20;99.90;;;;;;5071502;28;20056;-35
2022/12/26 03:36:45;;;;;;;6.47;4.18;;;9.20;99.90;;;;;;5071781;28;20036;-36
2022/12/26 03:39:10;;;;;;;5.47;3.80;;;9.10;99.90;;;;;;5071977;28;20032;-36
2022/12/26 04:20:19;;;;;;;5.03;3.63;;;9.20;99.90;;;;;;5050158;28;20414;-36
2022/12/26 04:45:55;;;;;;;5.35;3.42;;;9.20;99.90;;;;;;5070483;28;20032;-37
2022/12/26 04:51:05;;;;;;;5.43;3.80;;;9.20;99.90;;;;;;5070706;28;20398;-36
2022/12/26 04:53:30;;;;;;;5.18;3.10;;;9.20;99.90;;;;;;5071494;28;20024;-35
2022/12/26 04:55:56;;;;;;;6.72;3.95;;;9.20;99.90;;;;;;5070186;28;20048;-35
2022/12/26 04:58:23;;;;;;;6.18;3.30;;;9.20;99.90;;;;;;5071198;28;20233;-36
2022/12/26 05:00:49;;;;;;;4.05;3.38;;;9.20;99.90;;;;;;5070945;28;20045;-36
2022/12/26 05:11:32;;;;;;;4.70;3.67;;;9.20;99.90;;;;;;5074579;28;20035;-36
2022/12/26 05:13:59;;;;;;;4.63;3.53;;;9.10;99.90;;;;;;5074099;28;20052;-36
2022/12/26 05:30:21;;;;;;;8.82;3.42;;;9.10;99.90;;;;;;5073810;28;20059;-35
2022/12/26 05:35:32;;;;;;;5.13;3.40;;;9.10;99.90;;;;;;5073544;28;20035;-36
2022/12/26 05:37:58;;;;;;;5.78;3.63;;;9.10;99.90;;;;;;5073373;28;20111;-36
2022/12/26 05:40:23;;;;;;;9.23;3.47;;;9.10;99.90;;;;;;5073566;28;20107;-36
2022/12/26 05:42:49;;;;;;;6.55;3.78;;;9.10;99.90;;;;;;5073503;28;20036;-37
2022/12/26 05:45:15;;;;;;;7.88;3.70;;;9.00;99.90;;;;;;5073968;28;20028;-38
2022/12/26 05:47:40;;;;;;;5.30;4.00;;;9.00;99.90;;;;;;5073152;28;20458;-36
2022/12/26 05:50:06;;;;;;;5.70;3.40;;;9.00;99.90;;;;;;5073254;28;20371;-36
2022/12/26 05:52:32;;;;;;;4.65;3.60;;;9.00;99.90;;;;;;5073439;28;20379;-36
2022/12/26 05:54:57;;;;;;;7.22;3.40;;;9.00;99.90;;;;;;5073195;28;20039;-36
2022/12/26 05:57:24;;;;;;;4.18;3.38;;;9.00;99.90;;;;;;5073073;28;20072;-36
2022/12/26 05:59:50;;;;;;;8.00;4.53;;;9.00;99.90;;;;;;5073242;28;20547;-36
2022/12/26 06:02:15;;;;;;;3.78;2.78;;;9.00;99.90;;;;;;5073206;28;20467;-35
2022/12/26 06:04:41;;;;;;;4.57;3.15;;;9.00;99.90;;;;;;5072949;28;20032;-36
2022/12/26 06:07:06;;;;;;;7.07;3.42;;;9.00;99.90;;;;;;5072934;28;20158;-37
2022/12/26 06:09:32;;;;;;;3.53;2.72;;;9.00;99.90;;;;;;5073058;28;20492;-36
2022/12/26 06:11:58;;;;;;;3.72;3.30;;;9.00;99.90;;;;;;5072993;28;20455;-37
2022/12/26 06:14:23;;;;;;;5.10;3.50;;;9.00;99.90;;;;;;5072971;28;20086;-35
2022/12/26 06:16:49;;;;;;;4.45;3.10;;;9.00;99.90;;;;;;5072657;28;20362;-36
2022/12/26 06:19:15;;;;;;;5.45;3.35;;;8.90;99.90;;;;;;5072793;28;20024;-37
2022/12/26 06:21:41;;;;;;;6.10;3.78;;;9.00;99.90;;;;;;5073321;28;20028;-36
2022/12/26 06:24:07;;;;;;;6.85;3.53;;;8.90;99.90;;;;;;5073719;28;20087;-37
2022/12/26 06:26:32;;;;;;;4.10;3.17;;;9.00;99.90;;;;;;5072304;28;20469;-37
2022/12/26 06:28:58;;;;;;;5.45;3.42;;;8.90;99.90;;;;;;5072648;28;20020;-35
2022/12/26 06:31:24;;;;;;;5.95;3.55;;;8.90;99.90;;;;;;5072614;28;20044;-36
2022/12/26 06:33:53;;;;;;;3.97;3.50;;;9.00;99.90;;;;;;5072410;28;20028;-35
2022/12/26 06:36:21;;;;;;;5.32;3.35;;;8.90;99.90;;;;;;5072163;28;20107;-35
2022/12/26 06:38:47;;;;;;;6.40;3.75;;;8.90;99.90;;;;;;5072580;28;20409;-35
2022/12/26 06:41:15;;;;;;;4.50;3.60;;;8.90;99.90;;;;;;5072381;28;20033;-37
2022/12/26 06:43:41;;;;;;;6.68;3.47;;;8.90;99.90;;;;;;5072322;28;20497;-36
2022/12/26 06:46:11;;;;;;;4.82;3.53;;;8.90;99.90;;;;;;5071920;28;20033;-35
2022/12/26 06:48:39;;;;;;;4.90;3.65;;;8.90;99.90;;;;;;5072100;28;20470;-36
2022/12/26 06:51:17;;;;;;;3.92;3.22;;;8.90;99.90;;;;;;5072159;28;20103;-37
2022/12/26 06:53:42;;;;;;;6.57;3.50;;;9.00;99.90;;;;;;5073577;28;20028;-36
2022/12/26 06:56:26;;;;;;;4.30;3.30;;;9.00;99.90;;;;;;5072685;28;20036;-37
2022/12/26 06:58:56;;;;;;;6.13;3.63;;;9.00;99.90;;;;;;5071920;28;20107;-37
2022/12/26 07:01:23;;;;;;;5.40;3.33;;;9.00;99.90;;;;;;5071932;28;20021;-37
2022/12/26 07:03:50;;;;;;;6.30;3.25;;;9.00;99.90;;;;;;5072114;28;20017;-37
2022/12/26 07:06:24;;;;;;;7.43;3.97;;;9.00;99.90;;;;;;5071535;28;20241;-37
2022/12/26 07:08:50;;;;;;;5.63;2.95;;;9.00;99.90;;;;;;5071940;28;20079;-36
2022/12/26 07:11:20;;;;;;;4.53;3.20;;;9.00;99.90;;;;;;5072225;28;20040;-35
2022/12/26 07:13:46;;;;;;;5.40;3.38;;;9.10;99.90;;;;;;5072068;28;20027;-35
2022/12/26 07:16:13;;;;;;;5.80;3.25;;;9.10;99.90;;;;;;5071475;28;20025;-35
2022/12/26 07:18:38;;;;;;;4.40;3.40;;;9.00;99.90;;;;;;5071682;28;20051;-35
2022/12/26 07:21:08;;;;;;;5.75;3.50;;;9.00;99.90;;;;;;5071660;28;20558;-36
2022/12/26 07:23:34;;;;;;;5.57;3.40;;;9.00;99.90;;;;;;5071664;28;20077;-36
2022/12/26 07:25:59;;;;;;;4.22;3.22;;;9.10;99.90;;;;;;5071192;28;20390;-36
2022/12/26 07:28:26;;;;;;;5.82;3.40;;;9.00;99.90;;;;;;5071125;28;20081;-35
2022/12/26 07:30:52;;;;;;;5.65;3.00;;;9.10;99.90;;;;;;5071553;28;20020;-36
2022/12/26 07:33:18;;;;;;;5.05;3.10;;;9.10;99.90;;;;;;5071525;28;20505;-35
2022/12/26 07:35:43;;;;;;;5.13;3.03;;;9.00;99.90;;;;;;5071387;28;20119;-35
2022/12/26 07:38:10;;;;;;;5.15;3.42;;;9.10;99.90;;;;;;5071283;28;20029;-36
2022/12/26 07:40:35;;;;;;;8.63;3.28;;;9.00;99.90;;;;;;5071324;28;20051;-36
2022/12/26 07:43:01;;;;;;;5.97;3.38;;;9.00;99.90;;;;;;5071377;28;20028;-36
2022/12/26 07:45:27;;;;;;;4.65;3.40;;;9.00;99.90;;;;;;5071218;28;20038;-35
2022/12/26 07:47:54;;;;;;;4.78;3.35;;;9.00;99.90;;;;;;5071010;28;20032;-35
2022/12/26 07:50:20;;;;;;;6.38;3.80;;;9.00;99.90;;;;;;5071313;28;20028;-35
2022/12/26 07:52:45;;;;;;;7.68;3.92;;;9.00;99.90;;;;;;5071262;28;20112;-35
2022/12/26 07:55:11;;;;;;;11.38;4.50;;;9.00;99.90;;;;;;5071061;28;20123;-37
2022/12/26 07:57:37;;;;;;;8.10;4.55;;;9.00;99.90;;;;;;5070936;28;20028;-36
2022/12/26 08:00:04;;;;;;;8.27;4.45;;;9.00;99.90;;;;;;5069870;28;20020;-36
2022/12/26 08:02:29;;;;;;;7.85;4.22;;;9.00;99.90;;;;;;5071083;28;20036;-35
2022/12/26 08:04:55;;;;;;;7.40;4.32;;;9.00;99.90;;;;;;5071176;28;20021;-36
2022/12/26 08:07:21;;;;;;;9.98;4.97;;;9.00;99.90;;;;;;5070772;28;20028;-37
2022/12/26 08:09:46;;;;;;;5.60;3.95;;;9.00;99.90;;;;;;5071080;28;20478;-36
2022/12/26 08:12:12;;;;;;;6.47;4.32;;;9.00;99.90;;;;;;5072059;28;20056;-35
2022/12/26 08:14:39;;;;;;;11.02;4.15;;;9.10;99.90;;;;;;5071168;28;20111;-36
2022/12/26 08:17:05;;;;;;;6.82;3.88;;;9.00;99.90;;;;;;5070802;28;20074;-35
2022/12/26 08:19:30;;;;;;;8.85;3.85;;;9.10;99.90;;;;;;5071058;28;20027;-35
2022/12/26 08:21:56;;;;;;;7.03;4.10;;;9.00;99.90;;;;;;5071093;28;20453;-35
2022/12/26 08:24:22;;;;;;;6.93;3.78;;;9.00;99.90;;;;;;5070958;28;20405;-36
2022/12/26 08:26:47;;;;;;;8.68;4.30;;;9.10;99.90;;;;;;5071070;28;20033;-36
2022/12/26 08:29:13;;;;;;;9.38;4.50;;;9.10;99.90;;;;;;5070963;28;20085;-37
2022/12/26 08:31:39;;;;;;;7.25;4.18;;;9.10;99.90;;;;;;5070918;28;20406;-36
2022/12/26 08:34:04;;;;;;;6.38;4.10;;;9.10;99.90;;;;;;5070930;28;20048;-35
2022/12/26 08:36:30;;;;;;;5.95;3.90;;;9.10;99.90;;;;;;5070820;28;20122;-36
2022/12/26 08:38:57;;;;;;;5.40;3.55;;;9.00;99.90;;;;;;5070761;28;20024;-36
2022/12/26 08:41:23;;;;;;;6.07;4.07;;;9.10;99.90;;;;;;5073386;28;20020;-35
2022/12/26 08:43:50;;;;;;;6.65;4.03;;;9.10;99.90;;;;;;5074748;28;20405;-37
2022/12/26 08:46:17;;;;;;;8.27;4.00;;;9.10;99.90;;;;;;5074169;28;20056;-36
2022/12/26 08:48:44;;;;;;;9.70;4.07;;;9.10;99.90;;;;;;5074598;28;20021;-36
2022/12/26 08:51:21;;;;;;;4.28;3.75;;;9.10;99.90;;;;;;5073449;28;20375;-36
2022/12/26 08:53:48;;;;;;;7.05;4.35;;;9.10;99.90;;;;;;5074798;28;20070;-35
2022/12/26 08:56:20;;;;;;;7.05;4.50;;;9.10;99.90;;;;;;5074014;28;20033;-37
2022/12/26 08:58:46;;;;;;;6.32;5.00;;;9.10;99.90;;;;;;5074451;28;20545;-36
2022/12/26 09:01:18;;;;;;;11.52;8.52;;;9.10;99.90;;;;;;5074325;28;20025;-36
2022/12/26 09:03:45;;;;;;;9.60;7.43;;;9.10;99.90;;;;;;5074205;28;20024;-35
2022/12/26 09:06:12;;;;;;;8.77;5.03;;;9.10;99.90;;;;;;5073837;28;20119;-35
2022/12/26 09:08:39;;;;;;;10.55;4.70;;;9.10;99.90;;;;;;5074307;28;20439;-36
2022/12/26 09:11:17;;;;;;;7.93;5.55;;;9.10;99.90;;;;;;5074152;28;20501;-36
2022/12/26 09:13:43;;;;;;;11.23;5.88;;;9.10;99.90;;;;;;5074273;28;20028;-36
2022/12/26 09:16:10;;;;;;;8.32;5.88;;;9.10;99.90;;;;;;5073759;28;20032;-35
2022/12/26 09:18:36;;;;;;;10.77;6.53;;;9.10;99.90;;;;;;5073986;28;20560;-36
2022/12/26 09:21:04;;;;;;;9.02;6.53;;;9.10;99.90;;;;;;5073998;28;20024;-36
2022/12/26 09:23:30;;;;;;;12.15;6.85;;;9.10;99.90;;;;;;5074466;28;20028;-35
2022/12/26 09:26:11;;;;;;;8.32;6.00;;;9.10;99.90;;;;;;5074377;28;20047;-36
2022/12/26 09:28:38;;;;;;;13.40;6.40;;;9.00;99.90;;;;;;5074474;28;20036;-36
2022/12/26 09:31:06;;;;;;;9.95;6.30;;;9.00;99.90;;;;;;5073740;28;20393;-37
2022/12/26 09:33:32;;;;;;;9.10;6.35;;;9.00;99.90;;;;;;5074301;28;20128;-36
2022/12/26 09:35:59;;;;;;;11.32;7.38;;;9.10;99.90;;;;;;5073675;28;20085;-36
2022/12/26 09:38:25;;;;;;;10.27;6.82;;;9.10;99.90;;;;;;5073623;28;20032;-36
2022/12/26 09:41:26;;;;;;;11.52;7.93;;;9.10;99.90;;;;;;5073659;28;20021;-36
2022/12/26 09:44:16;;;;;;;10.77;7.22;;;9.00;99.90;;;;;;5073581;28;20528;-37
2022/12/26 09:47:07;;;;;;;8.88;6.20;;;9.10;99.90;;;;;;5073380;28;20025;-37
2022/12/26 09:49:55;;;;;;;8.30;6.13;;;9.00;99.90;;;;;;5073379;28;20107;-35
2022/12/26 09:52:29;;;;;;;11.60;6.30;;;9.10;99.90;;;;;;5073186;28;20031;-35
2022/12/26 09:55:03;;;;;;;9.02;5.70;;;9.10;99.90;;;;;;5073293;28;20032;-36
2022/12/26 09:57:51;;;;;;;11.38;6.30;;;9.10;99.90;;;;;;5072992;28;20103;-35
2022/12/26 10:00:47;;;;;;;10.18;5.78;;;9.10;99.90;;;;;;5073292;28;20024;-36
2022/12/26 10:03:13;;;;;;;12.80;8.60;;;9.10;99.90;;;;;;5068045;28;20037;-35
2022/12/26 10:05:59;;;;;;;16.52;10.15;;;9.10;99.90;;;;;;5073000;28;20028;-36
2022/12/26 10:08:59;;;;;;;12.57;7.78;;;9.10;99.90;;;;;;5073068;28;20100;-35
2022/12/26 10:11:43;;;;;;;14.65;9.20;;;9.10;99.90;;;;;;5072692;28;20115;-37
2022/12/26 10:14:24;;;;;;;16.13;9.70;;;9.10;99.90;;;;;;5073062;28;20077;-36
2022/12/26 10:16:56;;;;;;;19.63;11.60;;;9.10;99.90;;;;;;5072579;28;20103;-36
2022/12/26 10:19:32;;;;;;;13.93;10.25;;;9.10;99.90;;;;;;5072943;28;20020;-37
2022/12/26 10:22:34;;;;;;;15.20;9.55;;;9.10;99.90;;;;;;5072878;28;20020;-35
2022/12/26 10:25:03;;;;;;;11.23;8.35;;;9.10;99.90;;;;;;5072698;28;20036;-36
2022/12/26 10:27:37;;;;;;;11.07;8.25;;;9.10;99.90;;;;;;5072689;28;20063;-35
2022/12/26 10:30:06;;;;;;;11.23;7.82;;;9.10;99.90;;;;;;5072738;28;20310;-35
2022/12/26 10:32:36;;;;;;;14.88;8.93;;;9.10;99.90;;;;;;5072566;28;20389;-37
2022/12/26 10:35:28;;;;;;;13.50;8.50;;;9.10;99.90;;;;;;5072611;28;20103;-35
2022/12/26 10:37:55;;;;;;;15.73;10.75;;;9.20;99.90;;;;;;5072429;28;20035;-35
2022/12/26 10:40:27;;;;;;;18.10;11.77;;;9.10;99.90;;;;;;5072439;28;20033;-37
2022/12/26 10:42:54;;;;;;;14.95;9.90;;;9.10;99.90;;;;;;5072422;28;20016;-36
2022/12/26 10:45:38;;;;;;;13.05;8.60;;;9.10;99.90;;;;;;5070842;28;20025;-36
2022/12/26 10:48:04;;;;;;;12.68;7.78;;;9.10;99.90;;;;;;5071990;28;20028;-35
2022/12/26 10:50:33;;;;;;;10.65;7.03;;;9.20;99.90;;;;;;5072438;28;20154;-37
2022/12/26 10:53:02;;;;;;;10.27;6.05;;;9.20;99.90;;;;;;5072183;28;20482;-35
2022/12/26 10:55:31;;;;;;;8.10;5.25;;;9.20;99.90;;;;;;5071968;28;20040;-36
2022/12/26 10:58:02;;;;;;;6.93;4.32;;;9.20;99.90;;;;;;5071768;28;20039;-37
2022/12/26 11:00:28;;;;;;;5.95;3.80;;;9.20;99.90;;;;;;5074026;28;20500;-35
2022/12/26 11:03:06;;;;;;;5.65;3.33;;;9.20;99.90;;;;;;5071585;28;20025;-36
2022/12/26 11:05:35;;;;;;;4.15;2.75;;;9.20;99.90;;;;;;5071843;28;20048;-36
2022/12/26 11:08:24;;;;;;;3.22;2.45;;;9.30;99.90;;;;;;5071707;28;20542;-36
2022/12/26 11:11:07;;;;;;;5.20;2.53;;;9.30;99.90;;;;;;5071906;28;20032;-36
2022/12/26 11:13:40;;;;;;;3.88;2.92;;;9.30;99.90;;;;;;5071929;28;20035;-36
2022/12/26 11:16:07;;;;;;;4.18;2.83;;;9.30;99.90;;;;;;5071541;28;20036;-36
2022/12/26 11:18:35;;;;;;;6.03;2.78;;;9.30;99.90;;;;;;5071826;28;20037;-36
2022/12/26 11:21:28;;;;;;;5.70;2.53;;;9.30;99.90;;;;;;5072526;28;20025;-37
2022/12/26 11:24:14;;;;;;;2.90;2.05;;;9.30;99.90;;;;;;5071577;28;20063;-37
2022/12/26 11:26:40;;;;;;;2.15;1.50;;;9.30;99.90;;;;;;5071242;28;20032;-36
2022/12/26 11:29:19;;;;;;;2.80;1.50;;;9.30;99.90;;;;;;5071601;28;20032;-36
2022/12/26 11:31:59;;;;;;;2.25;1.42;;;9.30;99.90;;;;;;5071604;28;20488;-36
2022/12/26 11:34:46;;;;;;;2.67;1.50;;;9.30;99.90;;;;;;5071823;28;20028;-37
2022/12/26 11:37:29;;;;;;;4.82;2.10;;;9.30;99.90;;;;;;5071232;28;20021;-36
2022/12/26 11:39:56;;;;;;;3.95;2.25;;;9.30;99.90;;;;;;5071479;28;20024;-36
2022/12/26 11:42:24;;;;;;;3.55;1.80;;;9.30;99.90;;;;;;5071784;28;20482;-36
2022/12/26 11:44:53;;;;;;;5.30;1.60;;;9.30;99.90;;;;;;5070217;28;20032;-36
2022/12/26 11:47:22;;;;;;;2.40;1.60;;;9.30;99.90;;;;;;5071235;28;20029;-37
2022/12/26 11:50:06;;;;;;;2.15;1.45;;;9.30;99.90;;;;;;5071526;28;20386;-35
2022/12/26 11:52:58;;;;;;;1.38;1.10;;;9.30;99.90;;;;;;5071353;28;20024;-36
2022/12/26 11:55:26;;;;;;;1.50;0.93;;;9.30;99.90;;;;;;5062745;28;20033;-35
2022/12/26 11:57:57;;;;;;;2.65;1.10;;;9.30;99.90;;;;;;5071075;28;20371;-36
2022/12/26 12:00:24;;;;;;;1.52;1.10;;;9.30;99.90;;;;;;5071566;28;20298;-37
2022/12/26 12:02:50;;;;;;;1.40;0.90;;;9.30;99.90;;;;;;5072090;28;20020;-36
2022/12/26 12:05:27;;;;;;;1.00;0.80;;;9.30;99.90;;;;;;5070973;28;20035;-36
2022/12/26 12:08:16;;;;;;;2.38;0.93;;;9.30;99.90;;;;;;5071048;28;20032;-35
2022/12/26 12:10:56;;;;;;;1.45;0.70;;;9.30;99.90;;;;;;5071171;28;20064;-36
2022/12/26 12:13:56;;;;;;;3.00;1.05;;;9.30;99.90;;;;;;5071154;28;20017;-36
2022/12/26 12:16:40;;;;;;;1.42;0.80;;;9.30;99.90;;;;;;5074993;28;20381;-35
2022/12/26 12:19:27;;;;;;;0.93;0.75;;;9.30;99.90;;;;;;5075261;28;20028;-37
2022/12/26 12:22:08;;;;;;;2.28;0.70;;;9.30;99.90;;;;;;5075008;28;20386;-36
2022/12/26 12:24:55;;;;;;;0.98;0.77;;;9.30;99.90;;;;;;5075307;28;20040;-35
2022/12/26 12:27:24;;;;;;;1.20;0.90;;;9.30;99.90;;;;;;5074608;28;20028;-36
2022/12/26 12:30:08;;;;;;;1.52;1.00;;;9.30;99.90;;;;;;5074965;28;20020;-35
2022/12/26 12:32:55;;;;;;;4.13;0.98;;;9.30;99.90;;;;;;5075697;28;20102;-37
2022/12/26 12:35:45;;;;;;;1.10;0.88;;;9.30;99.90;;;;;;5075170;28;20029;-37
2022/12/26 12:38:32;;;;;;;1.63;0.70;;;9.30;99.90;;;;;;5063604;28;20051;-37
2022/12/26 12:41:08;;;;;;;1.00;0.80;;;9.40;99.90;;;;;;5074628;28;20099;-36
2022/12/26 12:43:40;;;;;;;2.42;1.08;;;9.30;99.90;;;;;;5074933;28;20021;-37
2022/12/26 12:46:36;;;;;;;1.50;1.05;;;9.40;99.90;;;;;;5074206;28;20017;-37
2022/12/26 12:49:25;;;;;;;1.67;0.65;;;9.40;99.90;;;;;;5074612;28;20478;-38
2022/12/26 12:52:11;;;;;;;0.95;0.75;;;9.30;99.90;;;;;;5075586;28;20436;-36
2022/12/26 12:55:13;;;;;;;1.38;1.15;;;9.30;99.90;;;;;;5074554;28;20350;-37
2022/12/26 12:57:57;;;;;;;4.32;0.70;;;9.40;99.90;;;;;;5074012;28;20039;-35
2022/12/26 13:00:35;;;;;;;1.17;0.80;;;9.30;99.90;;;;;;5074504;28;20025;-37
2022/12/26 13:03:04;;;;;;;2.28;0.60;;;9.40;99.90;;;;;;5074849;28;20621;-37
2022/12/26 13:06:04;;;;;;;1.17;0.80;;;9.40;99.90;;;;;;5075085;28;20393;-37
2022/12/26 13:08:58;;;;;;;1.67;0.70;;;9.40;99.90;;;;;;5050050;28;20490;-37
2022/12/26 13:11:38;;;;;;;1.20;0.60;;;9.40;99.90;;;;;;5045200;28;20044;-37
2022/12/26 13:14:30;;;;;;;1.45;0.70;;;9.40;99.90;;;;;;5074609;28;20020;-36
2022/12/26 13:16:59;;;;;;;1.35;0.70;;;9.40;99.90;;;;;;5073886;28;20024;-35
2022/12/26 13:19:40;;;;;;;1.00;0.70;;;9.40;99.90;;;;;;5074048;28;20558;-35
2022/12/26 13:24:22;;;;;;;1.15;0.68;;;9.40;99.90;;;;;;5073900;28;20033;-35
2022/12/26 13:25:23;;;;;;;2.50;1.00;;;9.40;99.90;;;;;;5073645;28;20516;-37
2022/12/26 13:27:52;;;;;;;1.20;0.90;;;9.40;99.90;;;;;;5074112;28;20029;-35
2022/12/26 13:30:18;;;;;;;1.20;0.73;;;9.40;99.90;;;;;;5073691;28;20393;-35
2022/12/26 13:32:44;;;;;;;1.38;0.75;;;9.40;99.90;;;;;;5074755;28;20104;-37
2022/12/26 13:35:47;;;;;;;0.82;0.70;;;9.40;99.90;;;;;;5073783;28;20074;-37
2022/12/26 13:38:12;;;;;;;1.45;0.70;;;9.40;99.90;;;;;;5073542;28;20077;-36
2022/12/26 13:44:05;;;;;;;1.00;0.70;;;9.40;99.90;;;;;;5073968;28;20484;-35
2022/12/26 13:46:54;;;;;;;1.85;0.85;;;9.40;99.90;;;;;;5073438;28;20044;-35
2022/12/26 13:49:37;;;;;;;1.33;0.90;;;9.40;99.90;;;;;;5073556;28;20023;-37
2022/12/26 13:52:08;;;;;;;1.42;0.80;;;9.40;99.90;;;;;;5073516;28;20025;-37
2022/12/26 13:54:34;;;;;;;1.17;0.93;;;9.40;99.90;;;;;;5073203;28;20025;-36
2022/12/26 13:57:38;;;;;;;1.60;0.70;;;9.40;99.90;;;;;;5074736;28;20043;-36
2022/12/26 14:00:41;;;;;;;1.15;0.70;;;9.40;99.90;;;;;;5073591;28;20056;-37
2022/12/26 14:03:36;;;;;;;1.70;0.80;;;9.40;99.90;;;;;;5041477;28;20036;-36
2022/12/26 14:06:33;;;;;;;1.23;0.80;;;9.40;99.90;;;;;;5072918;28;20575;-37
2022/12/26 14:09:27;;;;;;;1.30;0.90;;;9.40;99.90;;;;;;5060870;28;20056;-37
2022/12/26 14:12:23;;;;;;;1.63;1.13;;;9.40;99.90;;;;;;5072973;28;20020;-36
2022/12/26 14:15:42;;;;;;;3.42;0.93;;;9.40;99.90;;;;;;5073188;28;20020;-35
2022/12/26 14:18:29;;;;;;;2.33;1.27;;;9.40;99.90;;;;;;5048694;28;20029;-36
2022/12/26 14:21:10;;;;;;;1.90;1.17;;;9.40;99.90;;;;;;5072939;28;20028;-35
2022/12/26 14:24:15;;;;;;;1.70;1.10;;;9.40;99.90;;;;;;5072809;28;20016;-35
2022/12/26 14:27:14;;;;;;;3.55;1.08;;;9.40;99.90;;;;;;5017437;28;20117;-37
2022/12/26 14:30:05;;;;;;;1.80;1.33;;;9.40;99.90;;;;;;5072679;28;20031;-37
2022/12/26 14:32:49;;;;;;;2.40;1.40;;;9.40;99.90;;;;;;5061773;28;20563;-36
2022/12/26 14:35:32;;;;;;;1.85;1.38;;;9.40;99.90;;;;;;5072561;28;20016;-37
2022/12/26 14:38:09;;;;;;;2.88;1.33;;;9.40;99.90;;;;;;5071164;28;20493;-35
2022/12/26 14:40:37;;;;;;;2.88;2.08;;;9.40;99.90;;;;;;5072511;28;20078;-37
2022/12/26 14:43:33;;;;;;;3.88;2.08;;;9.40;99.90;;;;;;5072265;28;20035;-35
2022/12/26 14:46:00;;;;;;;3.95;2.25;;;9.40;99.90;;;;;;5072600;28;20025;-37
2022/12/26 14:48:26;;;;;;;3.58;2.13;;;9.40;99.90;;;;;;5072957;28;20103;-36
2022/12/26 14:50:54;;;;;;;6.22;3.75;;;9.40;99.90;;;;;;5072545;28;20072;-38
2022/12/26 14:53:28;;;;;;;4.38;2.85;;;9.40;99.90;;;;;;5073010;28;20039;-37
2022/12/26 14:56:09;;;;;;;5.82;2.95;;;9.40;99.90;;;;;;5071906;28;20037;-35
2022/12/26 14:58:42;;;;;;;3.65;2.17;;;9.40;99.90;;;;;;5072479;28;20103;-36
2022/12/26 15:01:08;;;;;;;3.17;1.90;;;9.40;99.90;;;;;;5072112;28;20024;-37
2022/12/26 15:03:52;;;;;;;3.10;2.00;;;9.40;99.90;;;;;;5072012;28;20508;-36
2022/12/26 15:06:17;;;;;;;2.25;1.40;;;9.40;99.90;;;;;;5071589;28;20031;-37
2022/12/26 15:09:01;;;;;;;4.65;1.30;;;9.40;99.90;;;;;;5072098;28;20410;-36
2022/12/26 15:11:55;;;;;;;2.90;1.38;;;9.40;99.90;;;;;;5071922;28;20090;-35
2022/12/26 15:14:51;;;;;;;1.65;1.20;;;9.40;99.90;;;;;;5071928;28;20039;-36
2022/12/26 15:17:29;;;;;;;1.45;1.30;;;9.40;99.90;;;;;;5071990;28;20041;-36
2022/12/26 15:20:14;;;;;;;1.58;1.08;;;9.40;99.90;;;;;;5071739;28;20028;-35
2022/12/26 15:23:00;;;;;;;1.88;1.13;;;9.40;99.90;;;;;;5072211;28;20478;-37
2022/12/26 15:25:59;;;;;;;1.60;1.23;;;9.40;99.90;;;;;;5072031;28;20032;-37
2022/12/26 15:29:04;;;;;;;1.80;0.90;;;9.40;99.90;;;;;;5071289;28;20023;-36
2022/12/26 15:31:44;;;;;;;2.63;1.02;;;9.40;99.90;;;;;;5071681;28;20021;-36
2022/12/26 15:34:10;;;;;;;2.15;1.17;;;9.40;99.90;;;;;;5071568;28;20024;-37
2022/12/26 15:36:59;;;;;;;2.50;0.85;;;9.40;99.90;;;;;;5071161;28;20020;-36
2022/12/26 15:39:31;;;;;;;1.98;1.25;;;9.40;99.90;;;;;;5071582;28;20036;-35